Time;durP1;ratioP1;P1;durP2;ratioP2;P2;SDS_P1;SDS_P2;PMS_P1;PMS_P2;Temp;Humidity;BMP_temperature;BMP_pressure;BME280_temperature;BME280_humidity;BME280_pressure;Samples;Min_cycle;Max_cycle;Signal;HPM_P1;HPM_P2
2023/01/28 00:01:13;;;;;;;10.13;8.20;;;3.70;99.90;;;;;;5007999;28;20184;-55
2023/01/28 00:03:39;;;;;;;8.80;7.60;;;3.60;99.90;;;;;;5012677;28;20180;-54
2023/01/28 00:06:13;;;;;;;10.83;7.93;;;3.60;99.90;;;;;;5029848;28;20179;-54
2023/01/28 00:08:38;;;;;;;10.17;8.27;;;3.60;99.90;;;;;;5027221;28;20203;-54
2023/01/28 00:11:05;;;;;;;9.87;7.80;;;3.50;99.90;;;;;;5010542;28;20211;-57
2023/01/28 00:13:32;;;;;;;9.33;7.13;;;3.40;99.90;;;;;;5010877;28;20242;-57
2023/01/28 00:16:01;;;;;;;8.83;7.47;;;3.50;99.90;;;;;;5011572;28;20192;-55
2023/01/28 00:18:27;;;;;;;9.10;7.77;;;3.50;99.90;;;;;;5011658;28;20423;-54
2023/01/28 00:21:02;;;;;;;9.73;7.37;;;3.50;99.90;;;;;;5011667;28;20408;-55
2023/01/28 00:23:29;;;;;;;9.60;7.77;;;3.40;99.90;;;;;;5011707;28;20202;-51
2023/01/28 00:25:59;;;;;;;10.43;7.73;;;3.50;99.90;;;;;;5011647;28;20172;-55
2023/01/28 00:28:25;;;;;;;9.03;7.53;;;3.50;99.90;;;;;;5011380;28;20189;-52
2023/01/28 00:30:50;;;;;;;10.03;8.10;;;3.40;99.90;;;;;;5011440;28;20164;-56
2023/01/28 00:33:16;;;;;;;9.93;7.43;;;3.50;99.90;;;;;;5011648;28;20173;-53
2023/01/28 00:35:42;;;;;;;11.97;8.13;;;3.40;99.90;;;;;;5011657;28;20231;-57
2023/01/28 00:40:41;;;;;;;8.80;7.20;;;3.40;99.90;;;;;;5064592;28;20389;-51
2023/01/28 00:43:07;;;;;;;9.73;7.93;;;3.40;99.90;;;;;;5070449;28;20182;-48
2023/01/28 00:45:32;;;;;;;9.37;7.47;;;3.40;99.90;;;;;;5070890;28;20182;-50
2023/01/28 00:47:58;;;;;;;9.90;8.10;;;3.50;99.90;;;;;;5069852;28;20182;-47
2023/01/28 00:50:23;;;;;;;10.63;8.13;;;3.40;99.90;;;;;;5070755;28;20547;-48
2023/01/28 00:52:49;;;;;;;9.80;8.13;;;3.40;99.90;;;;;;5070786;28;20191;-48
2023/01/28 00:55:14;;;;;;;9.83;7.83;;;3.50;99.90;;;;;;5071109;28;20209;-47
2023/01/28 00:57:40;;;;;;;11.40;9.10;;;3.60;99.90;;;;;;5053288;28;20183;-47
2023/01/28 01:00:07;;;;;;;9.97;7.70;;;3.50;99.90;;;;;;5050430;28;20205;-48
2023/01/28 01:02:32;;;;;;;10.37;8.27;;;3.40;99.90;;;;;;5050982;28;20171;-47
2023/01/28 01:04:58;;;;;;;12.40;8.83;;;3.40;99.90;;;;;;5050877;28;20171;-48
2023/01/28 01:07:31;;;;;;;11.33;8.93;;;3.40;99.90;;;;;;5050917;28;20669;-50
2023/01/28 01:09:59;;;;;;;10.97;9.00;;;3.30;99.90;;;;;;5050430;28;20199;-49
2023/01/28 01:12:25;;;;;;;10.73;8.50;;;3.40;99.90;;;;;;5050898;28;20206;-47
2023/01/28 01:14:50;;;;;;;12.03;8.97;;;3.40;99.90;;;;;;5067250;28;20166;-47
2023/01/28 01:17:16;;;;;;;11.77;9.07;;;3.40;99.90;;;;;;5074134;28;20209;-47
2023/01/28 01:19:42;;;;;;;11.07;8.80;;;3.40;99.90;;;;;;5056330;28;20201;-49
2023/01/28 01:22:07;;;;;;;11.20;8.87;;;3.50;99.90;;;;;;5074869;28;20179;-47
2023/01/28 01:24:33;;;;;;;10.97;8.57;;;3.50;99.90;;;;;;5074344;28;20223;-50
2023/01/28 01:26:59;;;;;;;10.13;8.27;;;3.50;99.90;;;;;;5074664;28;20281;-50
2023/01/28 01:29:24;;;;;;;10.43;8.90;;;3.50;99.90;;;;;;5074147;28;20194;-48
2023/01/28 01:31:50;;;;;;;12.40;8.20;;;3.60;99.90;;;;;;5074696;28;20384;-49
2023/01/28 01:34:15;;;;;;;11.30;8.87;;;3.60;99.90;;;;;;5074577;28;20217;-48
2023/01/28 01:36:42;;;;;;;10.27;8.60;;;3.60;99.90;;;;;;5074426;28;20163;-48
2023/01/28 01:39:13;;;;;;;11.33;8.50;;;3.60;99.90;;;;;;5073880;28;20287;-51
2023/01/28 01:41:38;;;;;;;11.07;8.93;;;3.60;99.90;;;;;;5074413;28;20197;-49
2023/01/28 01:44:06;;;;;;;11.03;8.97;;;3.60;99.90;;;;;;5074416;28;20179;-52
2023/01/28 01:46:44;;;;;;;10.83;8.77;;;3.50;99.90;;;;;;5073437;28;20166;-52
2023/01/28 01:49:20;;;;;;;9.80;7.73;;;3.40;99.90;;;;;;5054050;28;20206;-48
2023/01/28 01:51:48;;;;;;;10.67;8.47;;;3.40;99.90;;;;;;5053887;28;20289;-48
2023/01/28 01:54:16;;;;;;;10.63;8.83;;;3.40;99.90;;;;;;5054131;28;20198;-49
2023/01/28 01:56:46;;;;;;;11.70;9.17;;;3.30;99.90;;;;;;5053954;28;20179;-52
2023/01/28 01:59:15;;;;;;;10.70;8.67;;;3.30;99.90;;;;;;5053620;28;20195;-50
2023/01/28 02:01:41;;;;;;;12.53;9.20;;;3.30;99.90;;;;;;5053975;28;20186;-48
2023/01/28 02:04:24;;;;;;;11.90;9.00;;;3.40;99.90;;;;;;5052736;28;20183;-49
2023/01/28 02:06:51;;;;;;;11.63;8.90;;;3.40;99.90;;;;;;5051774;28;20195;-48
2023/01/28 02:09:26;;;;;;;11.00;9.30;;;3.40;99.90;;;;;;5053188;28;20202;-48
2023/01/28 02:11:58;;;;;;;11.63;9.33;;;3.40;99.90;;;;;;5053599;28;20533;-51
2023/01/28 02:14:26;;;;;;;10.60;8.90;;;3.40;99.90;;;;;;5053733;28;20175;-50
2023/01/28 02:16:52;;;;;;;10.37;8.33;;;3.40;99.90;;;;;;5053693;28;20509;-49
2023/01/28 02:19:20;;;;;;;10.33;8.47;;;3.50;99.90;;;;;;5053531;28;20248;-48
2023/01/28 02:22:18;;;;;;;10.83;9.13;;;3.40;99.90;;;;;;5053779;28;20183;-48
2023/01/28 02:25:06;;;;;;;9.20;7.70;;;3.40;99.90;;;;;;5049644;28;20189;-48
2023/01/28 02:28:09;;;;;;;11.63;9.20;;;3.40;99.90;;;;;;5053650;28;20171;-52
2023/01/28 02:30:40;;;;;;;11.30;8.77;;;3.30;99.90;;;;;;5053314;28;20416;-48
2023/01/28 02:33:25;;;;;;;10.80;8.33;;;3.30;99.90;;;;;;5053635;28;20256;-49
2023/01/28 02:35:54;;;;;;;10.67;8.43;;;3.40;99.90;;;;;;5053523;28;20191;-50
2023/01/28 02:38:27;;;;;;;11.73;9.20;;;3.40;99.90;;;;;;5052665;28;20552;-48
2023/01/28 02:41:05;;;;;;;11.50;8.93;;;3.50;99.90;;;;;;5052425;28;20660;-49
2023/01/28 02:43:35;;;;;;;10.63;8.33;;;3.40;99.90;;;;;;5053372;28;20174;-52
2023/01/28 02:48:55;;;;;;;11.50;9.33;;;3.50;99.90;;;;;;5052988;28;20421;-47
2023/01/28 02:51:56;;;;;;;10.93;8.00;;;3.50;99.90;;;;;;5052812;28;20822;-48
2023/01/28 02:54:36;;;;;;;10.10;7.90;;;3.60;99.90;;;;;;4972146;28;20265;-49
2023/01/28 02:57:19;;;;;;;12.10;8.60;;;3.50;99.90;;;;;;4971707;28;20571;-49
2023/01/28 03:00:00;;;;;;;9.37;6.93;;;3.50;99.90;;;;;;4971691;28;20468;-52
2023/01/28 03:02:33;;;;;;;10.17;7.67;;;5.70;99.90;;;;;;4971227;28;20217;-50
2023/01/28 03:05:25;;;;;;;10.63;8.07;;;3.60;99.90;;;;;;4971927;28;20517;-48
2023/01/28 03:07:52;;;;;;;10.50;7.47;;;3.60;99.90;;;;;;4963413;28;20433;-48
2023/01/28 03:10:21;;;;;;;10.03;7.23;;;3.60;99.90;;;;;;4971422;28;20205;-49
2023/01/28 03:38:41;;;;;;;8.23;6.63;;;3.70;99.90;;;;;;5050668;28;20636;-48
2023/01/28 03:41:08;;;;;;;10.23;7.03;;;3.80;99.90;;;;;;5051927;28;20194;-48
2023/01/28 03:43:34;;;;;;;9.93;7.17;;;3.70;99.90;;;;;;5051894;28;20175;-49
2023/01/28 03:46:00;;;;;;;10.50;7.50;;;3.80;99.90;;;;;;5051747;28;20179;-48
2023/01/28 03:48:27;;;;;;;10.20;7.20;;;3.80;99.90;;;;;;5051306;28;20626;-49
2023/01/28 03:50:55;;;;;;;10.27;7.60;;;3.80;99.90;;;;;;5051724;28;20172;-46
2023/01/28 03:53:20;;;;;;;10.77;7.90;;;3.90;99.90;;;;;;5051913;28;20171;-49
2023/01/28 03:55:49;;;;;;;10.30;7.50;;;3.90;99.90;;;;;;5051711;28;20244;-49
2023/01/28 03:58:15;;;;;;;9.70;7.50;;;3.90;99.90;;;;;;5051619;28;20179;-48
2023/01/28 04:00:42;;;;;;;10.90;8.03;;;4.00;99.90;;;;;;5051159;28;20187;-50
2023/01/28 04:03:15;;;;;;;9.70;7.70;;;4.00;99.90;;;;;;5051145;28;20179;-48
2023/01/28 04:05:45;;;;;;;11.53;7.63;;;4.00;99.90;;;;;;5051460;28;20240;-50
2023/01/28 04:08:11;;;;;;;10.33;7.33;;;3.90;99.90;;;;;;5051604;28;20193;-48
2023/01/28 04:10:39;;;;;;;11.13;8.13;;;3.90;99.90;;;;;;5051140;28;20185;-48
2023/01/28 04:13:05;;;;;;;12.20;7.90;;;3.90;99.90;;;;;;5051619;28;20272;-48
2023/01/28 04:15:31;;;;;;;10.53;7.60;;;4.00;99.90;;;;;;5051513;28;20179;-48
2023/01/28 04:17:57;;;;;;;12.40;8.07;;;4.00;99.90;;;;;;5051455;28;20175;-45
2023/01/28 04:20:22;;;;;;;11.33;7.63;;;4.10;99.90;;;;;;5051157;28;20171;-52
2023/01/28 04:22:48;;;;;;;9.67;7.10;;;4.00;99.90;;;;;;5051426;28;20667;-48
2023/01/28 04:25:14;;;;;;;10.37;7.93;;;4.00;99.90;;;;;;5051217;28;20543;-49
2023/01/28 04:27:39;;;;;;;11.03;8.37;;;4.00;99.90;;;;;;5050778;28;20544;-49
2023/01/28 04:30:06;;;;;;;10.57;7.57;;;4.10;99.90;;;;;;5050779;28;20195;-48
2023/01/28 04:32:31;;;;;;;10.47;7.93;;;4.10;99.90;;;;;;5051091;28;20214;-48
2023/01/28 04:34:57;;;;;;;12.37;9.63;;;4.20;99.90;;;;;;5051417;28;20175;-49
2023/01/28 04:37:22;;;;;;;11.80;9.27;;;4.20;99.90;;;;;;5050793;28;20183;-49
2023/01/28 04:39:48;;;;;;;12.43;8.87;;;4.20;99.90;;;;;;5050414;28;20356;-52
2023/01/28 04:42:13;;;;;;;11.73;8.70;;;4.20;99.90;;;;;;5051071;28;20179;-49
2023/01/28 04:44:39;;;;;;;11.83;8.73;;;5.40;99.90;;;;;;5051362;28;20178;-48
2023/01/28 04:47:04;;;;;;;11.97;8.83;;;4.30;99.90;;;;;;5051037;28;20631;-50
2023/01/28 04:49:30;;;;;;;11.90;9.27;;;4.30;99.90;;;;;;5050791;28;20199;-48
2023/01/28 04:51:55;;;;;;;10.80;8.50;;;4.30;99.90;;;;;;5049301;28;20211;-48
2023/01/28 04:54:21;;;;;;;13.57;9.10;;;4.30;99.90;;;;;;5053979;28;20193;-49
2023/01/28 04:56:46;;;;;;;11.90;8.63;;;4.40;99.90;;;;;;5062604;28;20241;-50
2023/01/28 04:59:12;;;;;;;13.37;9.20;;;4.30;99.90;;;;;;5050209;28;20227;-48
2023/01/28 05:01:37;;;;;;;12.80;9.27;;;4.40;99.90;;;;;;5050738;28;20198;-49
2023/01/28 05:04:04;;;;;;;12.47;9.23;;;4.30;99.90;;;;;;5050759;28;20179;-49
2023/01/28 05:06:31;;;;;;;12.90;9.73;;;4.30;99.90;;;;;;5050989;28;20182;-47
2023/01/28 05:08:56;;;;;;;13.27;9.63;;;4.30;99.90;;;;;;5051385;28;20191;-50
2023/01/28 05:11:23;;;;;;;13.07;8.97;;;4.30;99.90;;;;;;5070781;28;20206;-50
2023/01/28 05:13:48;;;;;;;12.60;8.77;;;4.30;99.90;;;;;;5070715;28;20657;-48
2023/01/28 05:16:14;;;;;;;12.20;9.07;;;4.30;99.90;;;;;;5070286;28;20178;-50
2023/01/28 05:18:40;;;;;;;11.27;8.73;;;4.30;99.90;;;;;;5070635;28;20273;-51
2023/01/28 05:21:05;;;;;;;13.40;9.47;;;4.30;99.90;;;;;;5070891;28;20205;-48
2023/01/28 05:23:31;;;;;;;11.30;9.00;;;4.40;99.90;;;;;;5070871;28;20166;-51
2023/01/28 05:25:56;;;;;;;12.30;9.03;;;4.30;99.90;;;;;;5051623;28;20170;-49
2023/01/28 05:28:22;;;;;;;13.20;9.53;;;4.30;99.90;;;;;;5070577;28;20562;-48
2023/01/28 05:30:47;;;;;;;13.43;9.67;;;4.30;99.90;;;;;;5070286;28;20223;-48
2023/01/28 05:33:13;;;;;;;12.70;9.67;;;4.20;99.90;;;;;;5070951;28;20198;-50
2023/01/28 05:35:39;;;;;;;13.30;9.47;;;4.20;99.90;;;;;;5070637;28;20627;-51
2023/01/28 05:38:04;;;;;;;11.87;8.90;;;4.20;99.90;;;;;;5070514;28;20589;-48
2023/01/28 05:40:30;;;;;;;12.00;8.70;;;4.20;99.90;;;;;;5070257;28;20218;-52
2023/01/28 05:42:55;;;;;;;14.10;9.57;;;4.00;99.90;;;;;;5070875;28;20210;-50
2023/01/28 05:45:21;;;;;;;12.60;9.30;;;3.90;99.90;;;;;;5070617;28;20167;-48
2023/01/28 05:47:46;;;;;;;13.93;9.53;;;3.70;99.90;;;;;;5069890;28;20174;-49
2023/01/28 05:50:13;;;;;;;14.10;9.90;;;3.80;99.90;;;;;;5070496;28;20191;-48
2023/01/28 05:52:39;;;;;;;15.10;9.80;;;3.70;99.90;;;;;;5070358;28;20200;-48
2023/01/28 05:55:05;;;;;;;12.40;9.47;;;3.70;99.90;;;;;;5070906;28;20249;-50
2023/01/28 05:57:31;;;;;;;11.30;9.10;;;3.70;99.90;;;;;;5070391;28;20300;-52
2023/01/28 05:59:56;;;;;;;12.00;8.73;;;3.70;99.90;;;;;;5069303;28;20721;-49
2023/01/28 06:02:22;;;;;;;14.00;9.57;;;3.70;99.90;;;;;;5034082;28;20167;-48
2023/01/28 06:04:47;;;;;;;13.47;9.80;;;3.70;99.90;;;;;;5054401;28;20171;-49
2023/01/28 06:07:14;;;;;;;14.10;9.30;;;3.80;99.90;;;;;;5053687;28;20179;-49
2023/01/28 06:09:40;;;;;;;11.30;9.00;;;3.90;99.90;;;;;;5053535;28;20191;-47
2023/01/28 06:12:05;;;;;;;14.77;10.63;;;3.90;99.90;;;;;;5051496;28;20206;-51
2023/01/28 06:14:31;;;;;;;15.70;11.37;;;3.90;99.90;;;;;;5053601;28;20295;-49
2023/01/28 06:16:56;;;;;;;14.97;11.20;;;3.80;99.90;;;;;;5048723;28;20180;-49
2023/01/28 06:19:22;;;;;;;16.27;11.50;;;3.80;99.90;;;;;;5054327;28;20207;-50
2023/01/28 06:21:48;;;;;;;13.53;10.30;;;3.80;99.90;;;;;;5052124;28;20179;-49
2023/01/28 06:24:13;;;;;;;15.20;10.83;;;3.60;99.90;;;;;;5035383;28;20228;-50
2023/01/28 06:26:39;;;;;;;15.60;10.97;;;3.30;99.90;;;;;;5068669;28;20174;-50
2023/01/28 06:29:04;;;;;;;14.53;10.40;;;3.10;99.90;;;;;;5072932;28;20198;-48
2023/01/28 06:31:30;;;;;;;14.83;10.70;;;2.80;99.90;;;;;;5073428;28;20281;-49
2023/01/28 06:33:55;;;;;;;13.47;10.60;;;2.60;99.90;;;;;;5067461;28;20524;-44
2023/01/28 06:36:21;;;;;;;16.10;11.80;;;2.60;99.90;;;;;;5053220;28;20179;-49
2023/01/28 06:38:47;;;;;;;13.40;11.23;;;2.70;99.90;;;;;;5054493;28;20691;-44
2023/01/28 06:41:12;;;;;;;15.97;11.83;;;2.70;99.90;;;;;;5053485;28;20170;-48
2023/01/28 06:43:38;;;;;;;14.50;11.60;;;2.70;99.90;;;;;;5053191;28;20702;-50
2023/01/28 06:46:04;;;;;;;15.77;11.80;;;2.70;99.90;;;;;;5053298;28;20185;-49
2023/01/28 06:48:29;;;;;;;15.83;11.30;;;2.80;99.90;;;;;;5052353;28;20321;-49
2023/01/28 06:50:55;;;;;;;16.73;12.60;;;2.70;99.90;;;;;;5052596;28;20424;-49
2023/01/28 06:53:21;;;;;;;16.27;12.00;;;2.70;99.90;;;;;;5052693;28;20703;-51
2023/01/28 06:55:47;;;;;;;15.20;12.03;;;2.60;99.90;;;;;;5053003;28;20309;-49
2023/01/28 06:58:12;;;;;;;16.13;12.50;;;2.60;99.90;;;;;;5053030;28;20317;-47
2023/01/28 07:00:38;;;;;;;14.53;11.87;;;2.60;99.90;;;;;;5052749;28;20198;-48
2023/01/28 07:03:04;;;;;;;14.30;11.20;;;2.70;99.90;;;;;;5053147;28;20167;-49
2023/01/28 07:05:29;;;;;;;16.40;12.57;;;2.60;99.90;;;;;;5052860;28;20175;-48
2023/01/28 07:07:55;;;;;;;15.87;12.20;;;2.60;99.90;;;;;;5052671;28;20230;-49
2023/01/28 07:10:21;;;;;;;16.70;12.83;;;2.70;99.90;;;;;;5051531;28;20199;-45
2023/01/28 07:12:46;;;;;;;15.60;11.83;;;2.80;99.90;;;;;;5052261;28;20690;-51
2023/01/28 07:15:13;;;;;;;17.00;12.57;;;2.90;99.90;;;;;;5045356;28;20183;-48
2023/01/28 07:17:40;;;;;;;15.47;12.00;;;2.90;99.90;;;;;;5047947;28;20263;-51
2023/01/28 07:20:07;;;;;;;16.47;12.23;;;3.00;99.90;;;;;;5047304;28;20206;-49
2023/01/28 07:22:33;;;;;;;16.43;12.17;;;3.10;99.90;;;;;;5064457;28;20506;-50
2023/01/28 07:25:00;;;;;;;17.20;12.50;;;3.10;99.90;;;;;;5064606;28;20429;-48
2023/01/28 07:27:26;;;;;;;17.50;12.93;;;3.10;99.90;;;;;;5047887;28;20175;-49
2023/01/28 07:29:51;;;;;;;15.70;12.60;;;3.20;99.90;;;;;;5049156;28;20736;-48
2023/01/28 07:32:17;;;;;;;17.77;12.77;;;3.20;99.90;;;;;;5048909;28;20191;-49
2023/01/28 07:34:42;;;;;;;15.83;12.13;;;3.20;99.90;;;;;;5060570;28;20231;-48
2023/01/28 07:37:09;;;;;;;15.90;12.53;;;3.20;99.90;;;;;;5058976;28;20175;-48
2023/01/28 07:39:34;;;;;;;16.13;12.57;;;3.00;99.90;;;;;;5050197;28;20605;-49
2023/01/28 07:42:01;;;;;;;15.10;11.70;;;3.00;99.90;;;;;;5051480;28;20543;-48
2023/01/28 07:44:26;;;;;;;16.93;12.53;;;3.00;99.90;;;;;;5052147;28;20195;-49
2023/01/28 07:46:53;;;;;;;18.17;13.30;;;3.00;99.90;;;;;;5050987;28;20256;-49
2023/01/28 07:49:18;;;;;;;16.20;12.23;;;3.00;99.90;;;;;;5051688;28;20197;-48
2023/01/28 07:51:45;;;;;;;16.37;12.60;;;3.10;99.90;;;;;;5052022;28;20202;-48
2023/01/28 07:54:12;;;;;;;15.30;12.33;;;3.10;99.90;;;;;;5051917;28;20167;-48
2023/01/28 07:56:37;;;;;;;13.97;10.90;;;3.10;99.90;;;;;;5048847;28;20301;-49
2023/01/28 07:59:03;;;;;;;16.93;13.07;;;3.10;99.90;;;;;;5050381;28;20282;-48
2023/01/28 08:01:29;;;;;;;17.27;12.87;;;3.00;99.90;;;;;;5051501;28;20211;-49
2023/01/28 08:03:55;;;;;;;15.40;12.10;;;;;;;;;;5051324;28;20183;-48
2023/01/28 08:06:20;;;;;;;15.77;12.40;;;3.00;99.90;;;;;;5051328;28;20210;-47
2023/01/28 08:08:49;;;;;;;14.37;11.33;;;3.00;99.90;;;;;;5051172;28;20310;-49
2023/01/28 08:11:14;;;;;;;15.90;12.33;;;3.00;99.90;;;;;;5051536;28;20525;-47
2023/01/28 08:13:40;;;;;;;17.73;12.53;;;2.80;99.90;;;;;;5051578;28;20182;-48
2023/01/28 08:16:06;;;;;;;16.53;12.27;;;;;;;;;;5051102;28;20612;-48
2023/01/28 08:18:32;;;;;;;16.70;12.13;;;2.80;99.90;;;;;;5051221;28;20198;-48
2023/01/28 08:20:58;;;;;;;16.17;12.17;;;2.70;99.90;;;;;;5050992;28;20803;-50
2023/01/28 08:23:29;;;;;;;15.30;11.60;;;2.70;99.90;;;;;;5051200;28;20674;-48
2023/01/28 08:25:57;;;;;;;16.27;12.60;;;2.70;99.90;;;;;;5050687;28;20441;-49
2023/01/28 08:28:23;;;;;;;16.27;12.60;;;2.60;99.90;;;;;;5051084;28;20226;-49
2023/01/28 08:30:49;;;;;;;15.77;11.97;;;2.70;99.90;;;;;;5050846;28;20446;-48
2023/01/28 08:33:16;;;;;;;15.60;11.90;;;2.60;99.90;;;;;;5050947;28;20198;-48
2023/01/28 08:35:41;;;;;;;17.00;12.30;;;2.50;99.90;;;;;;5046843;28;20179;-48
2023/01/28 08:38:07;;;;;;;17.67;12.87;;;2.40;99.90;;;;;;5050562;28;20412;-51
2023/01/28 08:40:34;;;;;;;16.73;12.30;;;2.50;99.90;;;;;;5033040;28;20289;-49
2023/01/28 08:42:59;;;;;;;15.50;12.10;;;2.50;99.90;;;;;;5051016;28;20186;-51
2023/01/28 08:45:26;;;;;;;15.93;12.27;;;2.60;99.90;;;;;;5051144;28;20179;-46
2023/01/28 08:47:56;;;;;;;15.77;12.47;;;2.60;99.90;;;;;;5050520;28;20171;-46
2023/01/28 08:50:24;;;;;;;15.43;11.40;;;1.90;99.90;;;;;;5030731;28;20462;-49
2023/01/28 08:52:55;;;;;;;14.50;11.90;;;4.20;99.90;;;;;;5030854;28;20545;-49
2023/01/28 08:55:21;;;;;;;16.43;11.73;;;2.60;99.90;;;;;;5031064;28;20728;-51
2023/01/28 08:57:46;;;;;;;16.10;11.63;;;2.50;99.90;;;;;;5030959;28;20478;-50
2023/01/28 09:00:12;;;;;;;14.47;11.77;;;2.50;99.90;;;;;;5029439;28;20719;-47
2023/01/28 09:02:38;;;;;;;17.33;12.70;;;2.50;99.90;;;;;;5031033;28;20180;-48
2023/01/28 09:05:05;;;;;;;15.67;12.00;;;2.60;99.90;;;;;;5037240;28;20183;-48
2023/01/28 09:07:31;;;;;;;15.80;11.70;;;2.60;99.90;;;;;;5050805;28;20258;-48
2023/01/28 09:09:56;;;;;;;16.50;12.40;;;2.60;99.90;;;;;;5050053;28;20430;-49
2023/01/28 09:12:22;;;;;;;15.80;12.37;;;2.60;99.90;;;;;;5050932;28;20253;-48
2023/01/28 09:14:47;;;;;;;16.70;12.87;;;2.60;99.90;;;;;;5050514;28;20182;-50
2023/01/28 09:17:13;;;;;;;15.87;12.10;;;2.60;99.90;;;;;;5050749;28;20225;-51
2023/01/28 09:19:38;;;;;;;16.07;12.57;;;2.50;99.90;;;;;;5034647;28;20254;-48
2023/01/28 09:22:04;;;;;;;16.50;12.03;;;2.40;99.90;;;;;;5030910;28;20176;-48
2023/01/28 09:24:30;;;;;;;17.30;13.03;;;2.50;99.90;;;;;;5030720;28;20537;-49
2023/01/28 09:26:56;;;;;;;16.97;12.83;;;2.60;99.90;;;;;;5030608;28;20411;-48
2023/01/28 09:29:21;;;;;;;17.60;12.47;;;2.60;99.90;;;;;;5045592;28;20254;-48
2023/01/28 09:31:47;;;;;;;16.97;12.13;;;2.60;99.90;;;;;;5057874;28;20714;-49
2023/01/28 09:34:12;;;;;;;17.37;13.13;;;2.60;99.90;;;;;;5050666;28;20651;-50
2023/01/28 09:36:38;;;;;;;16.33;12.70;;;2.60;99.90;;;;;;5050914;28;20175;-47
2023/01/28 09:39:04;;;;;;;17.10;13.23;;;2.50;99.90;;;;;;5053955;28;20261;-49
2023/01/28 09:41:54;;;;;;;14.83;11.90;;;2.40;99.90;;;;;;5051952;28;20582;-47
2023/01/28 09:44:29;;;;;;;17.80;12.87;;;2.40;99.90;;;;;;5046942;28;20186;-51
2023/01/28 09:47:01;;;;;;;15.03;11.93;;;2.50;99.90;;;;;;5042876;28;20175;-49
2023/01/28 09:49:44;;;;;;;17.10;12.30;;;2.50;99.90;;;;;;5053119;28;20209;-49
2023/01/28 09:52:16;;;;;;;17.07;13.37;;;2.60;99.90;;;;;;5053188;28;20694;-49
2023/01/28 09:54:51;;;;;;;15.73;12.27;;;2.60;99.90;;;;;;5052318;28;20410;-49
2023/01/28 09:57:22;;;;;;;17.20;12.03;;;2.60;99.90;;;;;;5054246;28;20274;-49
2023/01/28 09:59:48;;;;;;;16.63;12.93;;;2.60;99.90;;;;;;5037026;28;20437;-49
2023/01/28 10:02:47;;;;;;;18.30;13.03;;;2.50;99.90;;;;;;5033382;28;20176;-48
2023/01/28 10:05:22;;;;;;;18.27;12.77;;;2.50;99.90;;;;;;5034051;28;20176;-48
2023/01/28 10:08:00;;;;;;;17.50;12.53;;;2.60;99.90;;;;;;5033967;28;20167;-48
2023/01/28 10:10:36;;;;;;;17.50;12.70;;;2.60;99.90;;;;;;5033629;28;20178;-49
2023/01/28 10:13:19;;;;;;;16.13;12.47;;;2.70;99.90;;;;;;5037017;28;20198;-49
2023/01/28 10:16:00;;;;;;;18.23;12.73;;;2.60;99.90;;;;;;5053324;28;20175;-45
2023/01/28 10:18:34;;;;;;;16.07;12.53;;;2.70;99.90;;;;;;5052538;28;20203;-48
2023/01/28 10:21:23;;;;;;;16.80;12.50;;;2.80;99.90;;;;;;5053474;28;20164;-49
2023/01/28 10:24:14;;;;;;;20.50;13.23;;;2.80;99.90;;;;;;5040403;28;20240;-48
2023/01/28 10:26:41;;;;;;;17.40;13.10;;;2.90;99.90;;;;;;5053439;28;20254;-47
2023/01/28 10:29:20;;;;;;;16.83;13.03;;;3.00;99.90;;;;;;5053097;28;20191;-48
2023/01/28 10:31:54;;;;;;;19.03;12.93;;;2.90;99.90;;;;;;5053326;28;20183;-50
2023/01/28 10:34:21;;;;;;;17.13;13.00;;;2.80;99.90;;;;;;5066935;28;20171;-48
2023/01/28 10:36:47;;;;;;;16.03;12.47;;;2.90;99.90;;;;;;5057343;28;20164;-47
2023/01/28 10:39:15;;;;;;;16.67;12.47;;;2.90;99.90;;;;;;5068913;28;20210;-48
2023/01/28 10:41:41;;;;;;;18.50;13.30;;;3.00;99.90;;;;;;5059707;28;20262;-48
2023/01/28 10:44:18;;;;;;;14.63;12.07;;;2.90;99.90;;;;;;5044535;28;20611;-52
2023/01/28 10:46:47;;;;;;;14.50;11.67;;;2.90;99.90;;;;;;5068325;28;20177;-48
2023/01/28 10:49:26;;;;;;;15.93;12.40;;;2.90;99.90;;;;;;5046649;28;20215;-48
2023/01/28 10:51:51;;;;;;;16.03;12.87;;;2.80;99.90;;;;;;5042693;28;20219;-49
2023/01/28 10:54:19;;;;;;;15.47;12.07;;;2.70;99.90;;;;;;5042994;28;20880;-47
2023/01/28 10:56:45;;;;;;;17.07;13.20;;;2.50;99.90;;;;;;5040255;28;20539;-49
2023/01/28 10:59:19;;;;;;;16.13;12.90;;;2.40;99.90;;;;;;5038116;28;20188;-48
2023/01/28 11:02:18;;;;;;;15.67;12.30;;;2.40;99.90;;;;;;5038205;28;20175;-48
2023/01/28 11:04:44;;;;;;;15.90;12.73;;;2.60;99.90;;;;;;5046459;28;20180;-49
2023/01/28 11:07:18;;;;;;;17.23;13.17;;;2.80;99.90;;;;;;5051458;28;20182;-48
2023/01/28 11:09:46;;;;;;;16.00;12.90;;;1.90;99.90;;;;;;5054606;28;20717;-48
2023/01/28 11:12:23;;;;;;;15.17;12.13;;;2.80;99.90;;;;;;5044558;28;20196;-48
2023/01/28 11:15:16;;;;;;;18.23;12.70;;;2.80;99.90;;;;;;5043720;28;20175;-47
2023/01/28 11:17:50;;;;;;;17.10;13.27;;;2.80;99.90;;;;;;5038605;28;20179;-49
2023/01/28 11:20:21;;;;;;;18.20;14.40;;;2.80;99.90;;;;;;5040065;28;20205;-50
2023/01/28 11:22:48;;;;;;;17.60;13.53;;;2.80;99.90;;;;;;5052184;28;20559;-48
2023/01/28 11:25:34;;;;;;;17.43;13.13;;;2.80;99.90;;;;;;5051204;28;20187;-48
2023/01/28 11:28:04;;;;;;;18.47;13.47;;;2.80;99.90;;;;;;5051602;28;20784;-45
2023/01/28 11:30:39;;;;;;;18.23;13.80;;;2.80;99.90;;;;;;5051322;28;20210;-51
2023/01/28 11:33:41;;;;;;;20.27;14.03;;;2.90;99.90;;;;;;5045041;28;20207;-47
2023/01/28 11:36:18;;;;;;;16.77;12.87;;;2.80;99.90;;;;;;4970682;28;20193;-51
2023/01/28 11:39:15;;;;;;;18.10;14.07;;;2.70;99.90;;;;;;4970532;28;20243;-47
2023/01/28 11:41:41;;;;;;;16.93;13.43;;;2.70;99.90;;;;;;4971242;28;20230;-47
2023/01/28 11:44:13;;;;;;;19.27;13.93;;;2.70;99.90;;;;;;4965059;28;20194;-48
2023/01/28 11:47:06;;;;;;;16.73;13.43;;;2.80;99.90;;;;;;4970973;28;20189;-46
2023/01/28 11:50:23;;;;;;;16.73;13.37;;;2.80;99.90;;;;;;4970769;28;20198;-47
2023/01/28 11:53:23;;;;;;;17.57;13.07;;;3.00;99.90;;;;;;4913640;29;20211;-47
2023/01/28 11:56:03;;;;;;;16.97;13.10;;;2.90;99.90;;;;;;4875910;29;20193;-47
2023/01/28 11:58:32;;;;;;;20.53;13.67;;;2.90;99.90;;;;;;4876031;29;20212;-48
2023/01/28 12:01:13;;;;;;;16.73;13.23;;;2.90;99.90;;;;;;4873794;29;20592;-47
2023/01/28 12:04:04;;;;;;;18.03;13.70;;;2.90;99.90;;;;;;4892686;29;20280;-47
2023/01/28 12:07:00;;;;;;;16.67;13.67;;;2.90;99.90;;;;;;4873836;29;20204;-48
2023/01/28 12:09:44;;;;;;;18.47;13.53;;;2.90;99.90;;;;;;4889014;29;20205;-48
2023/01/28 12:12:34;;;;;;;16.43;12.70;;;2.90;99.90;;;;;;4899939;29;20217;-49
2023/01/28 12:15:21;;;;;;;17.13;13.00;;;2.80;99.90;;;;;;4928274;29;20180;-42
2023/01/28 12:18:02;;;;;;;17.40;13.57;;;2.80;99.90;;;;;;4933769;29;20624;-48
2023/01/28 12:20:39;;;;;;;19.50;13.80;;;2.80;99.90;;;;;;4931420;29;20179;-48
2023/01/28 12:23:16;;;;;;;17.23;13.07;;;2.80;99.90;;;;;;4959792;28;20208;-49
2023/01/28 12:25:53;;;;;;;16.77;13.07;;;2.80;99.90;;;;;;5010377;28;20209;-47
2023/01/28 12:28:45;;;;;;;17.47;13.80;;;3.00;99.90;;;;;;5014249;28;20184;-48
2023/01/28 12:31:17;;;;;;;19.33;14.63;;;3.10;99.90;;;;;;5009255;28;20181;-48
2023/01/28 12:34:20;;;;;;;19.40;13.50;;;3.10;99.90;;;;;;5045551;28;20659;-48
2023/01/28 12:37:09;;;;;;;18.07;13.83;;;2.90;99.90;;;;;;5049590;28;20183;-48
2023/01/28 12:39:41;;;;;;;16.80;13.07;;;2.80;99.90;;;;;;5050587;28;20229;-48
2023/01/28 12:42:12;;;;;;;17.97;13.17;;;2.80;99.90;;;;;;5049614;28;20250;-48
2023/01/28 12:44:46;;;;;;;19.30;13.70;;;2.80;99.90;;;;;;5049542;28;20168;-48
2023/01/28 12:47:21;;;;;;;17.57;13.73;;;2.90;99.90;;;;;;5051339;28;20179;-49
2023/01/28 12:49:54;;;;;;;16.23;12.70;;;3.10;99.90;;;;;;5050897;28;20198;-48
2023/01/28 12:52:29;;;;;;;16.23;12.27;;;3.10;99.90;;;;;;5051286;28;20647;-49
2023/01/28 12:55:04;;;;;;;16.97;13.57;;;3.10;99.90;;;;;;5051136;28;20311;-48
2023/01/28 12:57:33;;;;;;;17.63;13.10;;;3.20;99.90;;;;;;5051197;28;20163;-49
2023/01/28 13:00:29;;;;;;;18.40;14.43;;;3.40;99.90;;;;;;5050829;28;20227;-49
2023/01/28 13:03:17;;;;;;;18.43;13.67;;;3.60;99.90;;;;;;5051175;28;20186;-48
2023/01/28 13:05:54;;;;;;;15.70;12.50;;;3.50;99.90;;;;;;5050952;28;20183;-48
2023/01/28 13:08:24;;;;;;;19.90;14.40;;;3.40;99.90;;;;;;5050872;28;20210;-47
2023/01/28 13:10:51;;;;;;;18.03;13.50;;;3.30;99.90;;;;;;5051939;28;20266;-49
2023/01/28 13:13:17;;;;;;;15.33;12.40;;;3.30;99.90;;;;;;5055007;28;20624;-49
2023/01/28 13:15:43;;;;;;;17.23;12.73;;;3.30;99.90;;;;;;5055012;28;20203;-51
2023/01/28 13:18:47;;;;;;;18.40;13.13;;;3.30;99.90;;;;;;5054858;28;20168;-48
2023/01/28 13:21:24;;;;;;;17.77;12.87;;;3.30;99.90;;;;;;5054688;28;20172;-48
2023/01/28 13:24:03;;;;;;;16.63;12.60;;;3.30;99.90;;;;;;5054820;28;20175;-52
2023/01/28 13:26:36;;;;;;;16.27;11.87;;;3.10;99.90;;;;;;5054701;28;20175;-51
2023/01/28 13:29:14;;;;;;;18.37;13.03;;;3.10;99.90;;;;;;5054535;28;20195;-51
2023/01/28 13:31:45;;;;;;;16.67;12.73;;;3.10;99.90;;;;;;5054651;28;20656;-53